createdAt,value
2018-03-26T00:00:05.041Z,91518.50
2018-03-26T00:00:54.107Z,91517.59
2018-03-26T00:01:43.236Z,91517.59
2018-03-26T00:02:32.293Z,91516.38
2018-03-26T00:03:21.357Z,91517.43
2018-03-26T00:04:10.447Z,91516.30
2018-03-26T00:04:59.580Z,91517.37
2018-03-26T00:05:48.633Z,91511.91
2018-03-26T00:06:37.786Z,91511.86
2018-03-26T00:07:26.876Z,91512.65
2018-03-26T00:08:15.949Z,91517.41
2018-03-26T00:09:05.054Z,91515.09
2018-03-26T00:09:54.158Z,91514.06
2018-03-26T00:10:43.217Z,91515.38
2018-03-26T00:11:32.302Z,91520.48
2018-03-26T00:12:21.442Z,91521.03
2018-03-26T00:13:10.571Z,91523.99
2018-03-26T00:13:59.689Z,91525.80
2018-03-26T00:14:48.751Z,91531.58
2018-03-26T00:15:37.854Z,91529.53
2018-03-26T00:16:26.915Z,91528.05
2018-03-26T00:17:15.975Z,91520.97
2018-03-26T00:18:05.047Z,91513.81
2018-03-26T00:18:54.112Z,91518.59
2018-03-26T00:19:43.339Z,91515.64
2018-03-26T00:20:32.510Z,91511.44
2018-03-26T00:21:21.559Z,91514.20
2018-03-26T00:22:10.725Z,91508.67
2018-03-26T00:22:59.792Z,91512.95
2018-03-26T00:23:48.870Z,91507.30
2018-03-26T00:24:37.955Z,91516.08
2018-03-26T00:25:27.024Z,91508.58
2018-03-26T00:26:16.086Z,91514.33
2018-03-26T00:27:05.162Z,91509.00
2018-03-26T00:27:54.319Z,91501.06
2018-03-26T00:28:43.392Z,91498.41
2018-03-26T00:29:32.496Z,91498.77
2018-03-26T00:30:21.562Z,91500.80
2018-03-26T00:31:10.628Z,91493.06
2018-03-26T00:31:59.695Z,91496.92
2018-03-26T00:32:48.861Z,91496.73
2018-03-26T00:33:37.935Z,91493.56
2018-03-26T00:34:27.004Z,91493.84
2018-03-26T00:35:16.112Z,91485.25
2018-03-26T00:36:05.318Z,91492.52
2018-03-26T00:36:54.395Z,91482.35
2018-03-26T00:37:43.467Z,91488.27
2018-03-26T00:38:32.530Z,91486.31
2018-03-26T00:39:21.621Z,91479.06
2018-03-26T00:40:10.732Z,91484.15
2018-03-26T00:40:59.931Z,91478.92
2018-03-26T00:41:49.046Z,91483.89
2018-03-26T00:42:38.126Z,91475.52
2018-03-26T00:43:27.227Z,91479.14
2018-03-26T00:44:16.310Z,91479.19
2018-03-26T00:45:05.435Z,91475.66
2018-03-26T00:45:54.500Z,91480.25
2018-03-26T00:46:43.604Z,91481.59
2018-03-26T00:47:32.701Z,91486.67
2018-03-26T00:48:21.781Z,91483.42
2018-03-26T00:49:10.863Z,91484.08
2018-03-26T00:50:00.136Z,91478.62
2018-03-26T00:50:49.266Z,91477.95
2018-03-26T00:51:38.375Z,91475.11
2018-03-26T00:52:27.504Z,91479.36
2018-03-26T00:53:28.330Z,91477.96
2018-03-26T00:54:17.441Z,91478.71
2018-03-26T00:55:06.547Z,91476.94
2018-03-26T00:55:55.713Z,91479.30
2018-03-26T00:56:44.812Z,91471.87
2018-03-26T00:57:33.990Z,91465.31
2018-03-26T00:58:23.086Z,91465.78
2018-03-26T00:59:12.151Z,91465.73
2018-03-26T01:00:01.213Z,91457.25
2018-03-26T01:00:50.377Z,91468.41
2018-03-26T01:01:39.464Z,91452.47
2018-03-26T01:02:28.546Z,91452.36
2018-03-26T01:03:17.628Z,91454.02
2018-03-26T01:04:06.752Z,91451.23
2018-03-26T01:04:55.833Z,91448.93
2018-03-26T01:05:44.914Z,91447.37
2018-03-26T01:06:34.074Z,91449.75
2018-03-26T01:07:23.163Z,91451.66
2018-03-26T01:08:12.224Z,91462.86
2018-03-26T01:09:10.110Z,91470.80
2018-03-26T01:09:59.211Z,91470.20
2018-03-26T01:10:48.284Z,91472.59
2018-03-26T01:11:37.367Z,91468.58
2018-03-26T01:12:26.462Z,91464.22
2018-03-26T01:13:15.520Z,91465.48
2018-03-26T01:14:04.613Z,91467.89
2018-03-26T01:14:53.682Z,91467.13
2018-03-26T01:15:42.904Z,91465.30
2018-03-26T01:16:31.980Z,91471.83
2018-03-26T01:17:21.046Z,91472.23
2018-03-26T01:18:10.127Z,91479.87
2018-03-26T01:18:59.229Z,91475.13
2018-03-26T01:19:48.303Z,91479.10
2018-03-26T01:20:37.362Z,91479.87
2018-03-26T01:21:26.471Z,91476.44
2018-03-26T01:22:15.559Z,91476.90
2018-03-26T01:23:04.722Z,91479.83
2018-03-26T01:23:53.798Z,91475.94
2018-03-26T01:24:42.939Z,91478.43
2018-03-26T01:25:32.018Z,91482.99
2018-03-26T01:26:21.130Z,91477.95
2018-03-26T01:27:10.208Z,91478.84
2018-03-26T01:27:59.282Z,91474.39
2018-03-26T01:28:48.368Z,91477.06
2018-03-26T01:29:37.495Z,91470.77
2018-03-26T01:30:26.571Z,91469.72
2018-03-26T01:31:15.866Z,91466.11
2018-03-26T01:32:04.954Z,91467.28
2018-03-26T01:32:54.017Z,91468.26
2018-03-26T01:33:43.097Z,91468.97
2018-03-26T01:34:32.180Z,91468.97
2018-03-26T01:35:21.267Z,91469.52
2018-03-26T01:36:10.338Z,91469.08
2018-03-26T01:36:59.456Z,91462.97
2018-03-26T01:37:48.522Z,91469.94
2018-03-26T01:38:37.586Z,91468.09
2018-03-26T01:39:26.682Z,91469.33
2018-03-26T01:40:15.766Z,91465.42
2018-03-26T01:41:04.855Z,91463.81
2018-03-26T01:41:53.961Z,91463.78
2018-03-26T01:42:43.070Z,91463.42
2018-03-26T01:43:32.121Z,91466.05
2018-03-26T01:44:21.189Z,91467.65
2018-03-26T01:45:10.303Z,91468.64
2018-03-26T01:45:59.359Z,91468.19
2018-03-26T01:46:48.432Z,91476.36
2018-03-26T01:47:37.496Z,91473.72
2018-03-26T01:48:26.658Z,91473.44
2018-03-26T01:49:15.720Z,91471.52
2018-03-26T01:50:04.850Z,91475.02
2018-03-26T01:50:53.917Z,91470.88
2018-03-26T01:51:42.996Z,91471.57
2018-03-26T01:52:32.064Z,91472.94
2018-03-26T01:53:21.169Z,91476.19
2018-03-26T01:54:10.394Z,91466.92
2018-03-26T01:54:59.465Z,91467.86
2018-03-26T01:55:48.539Z,91468.79
2018-03-26T01:56:39.207Z,91466.40
2018-03-26T01:57:28.308Z,91469.63
2018-03-26T01:58:17.376Z,91474.56
2018-03-26T01:59:06.482Z,91479.87
2018-03-26T01:59:55.545Z,91476.75
2018-03-26T02:00:44.607Z,91479.89
2018-03-26T02:01:33.677Z,91482.73
2018-03-26T02:02:22.741Z,91480.24
2018-03-26T02:03:11.849Z,91477.80
2018-03-26T02:04:00.914Z,91484.62
2018-03-26T02:04:50.012Z,91481.69
2018-03-26T02:05:39.174Z,91478.84
2018-03-26T02:06:28.253Z,91486.83
2018-03-26T02:07:17.318Z,91486.02
2018-03-26T02:08:06.394Z,91488.67
2018-03-26T02:08:55.606Z,91484.62
2018-03-26T02:09:44.664Z,91489.83
2018-03-26T02:10:33.783Z,91484.09
2018-03-26T02:11:22.854Z,91489.73
2018-03-26T02:12:11.988Z,91485.92
2018-03-26T02:13:01.050Z,91486.97
2018-03-26T02:13:50.121Z,91481.34
2018-03-26T02:14:39.238Z,91482.32
2018-03-26T02:15:28.321Z,91480.11
2018-03-26T02:16:17.388Z,91476.75
2018-03-26T02:17:06.452Z,91479.69
2018-03-26T02:17:55.515Z,91478.62
2018-03-26T02:18:44.624Z,91486.32
2018-03-26T02:19:33.698Z,91477.37
2018-03-26T02:20:22.909Z,91476.14
2018-03-26T02:21:11.989Z,91471.16
2018-03-26T02:22:01.115Z,91472.55
2018-03-26T02:22:50.194Z,91478.67
2018-03-26T02:23:39.283Z,91476.45
2018-03-26T02:24:28.392Z,91475.91
2018-03-26T02:25:17.491Z,91477.52
2018-03-26T02:26:06.576Z,91476.39
2018-03-26T02:26:55.681Z,91480.19
2018-03-26T02:27:44.809Z,91483.08
2018-03-26T02:28:33.896Z,91482.67
2018-03-26T02:29:22.970Z,91486.52
2018-03-26T02:30:12.051Z,91484.56
2018-03-26T02:31:01.157Z,91487.70
2018-03-26T02:31:50.233Z,91485.75
2018-03-26T02:32:39.367Z,91486.27
2018-03-26T02:33:28.438Z,91482.79
2018-03-26T02:34:17.510Z,91487.30
2018-03-26T02:35:06.589Z,91484.11
2018-03-26T02:35:55.675Z,91487.18
2018-03-26T02:36:44.739Z,91485.66
2018-03-26T02:37:33.952Z,91483.72
2018-03-26T02:38:23.019Z,91486.63
2018-03-26T02:39:12.083Z,91482.20
2018-03-26T02:40:01.152Z,91489.25
2018-03-26T02:40:50.225Z,91485.44
2018-03-26T02:41:39.294Z,91481.14
2018-03-26T02:42:28.350Z,91484.62
2018-03-26T02:43:17.459Z,91488.27
2018-03-26T02:44:06.549Z,91487.20
2018-03-26T02:44:55.629Z,91487.18
2018-03-26T02:45:44.699Z,91488.89
2018-03-26T02:46:33.770Z,91486.16
2018-03-26T02:47:22.855Z,91491.91
2018-03-26T02:48:11.944Z,91497.00
2018-03-26T02:49:01.183Z,91492.28
2018-03-26T02:49:50.258Z,91499.77
2018-03-26T02:50:39.446Z,91496.27
2018-03-26T02:51:28.497Z,91495.17
2018-03-26T02:52:17.631Z,91494.84
2018-03-26T02:53:06.711Z,91491.55
2018-03-26T02:53:55.931Z,91487.45
2018-03-26T02:54:45.022Z,91493.20
2018-03-26T02:55:34.110Z,91491.43
2018-03-26T02:56:23.190Z,91485.67
2018-03-26T02:57:12.276Z,91490.62
2018-03-26T02:58:01.364Z,91493.80
2018-03-26T02:58:50.473Z,91495.20
2018-03-26T02:59:40.595Z,91500.88
2018-03-26T03:00:29.691Z,91497.33
2018-03-26T03:01:18.782Z,91502.77
2018-03-26T03:02:07.886Z,91498.61
2018-03-26T03:02:56.972Z,91494.91
2018-03-26T03:03:46.067Z,91501.91
2018-03-26T03:04:35.157Z,91501.16
2018-03-26T03:05:24.278Z,91510.64
2018-03-26T03:06:16.440Z,91498.36
2018-03-26T03:07:05.520Z,91507.12
2018-03-26T03:07:54.611Z,91504.59
2018-03-26T03:08:43.688Z,91506.28
2018-03-26T03:09:32.772Z,91507.31
2018-03-26T03:10:21.898Z,91508.09
2018-03-26T03:11:11.128Z,91506.19
2018-03-26T03:12:00.200Z,91499.24
2018-03-26T03:12:49.278Z,91503.99
2018-03-26T03:13:38.379Z,91504.75
2018-03-26T03:14:27.463Z,91503.09
2018-03-26T03:15:16.537Z,91500.64
2018-03-26T03:16:05.622Z,91497.49
2018-03-26T03:16:54.939Z,91504.95
2018-03-26T03:17:44.021Z,91500.03
2018-03-26T03:18:33.090Z,91496.69
2018-03-26T03:19:22.170Z,91506.68
2018-03-26T03:20:11.245Z,91498.81
2018-03-26T03:21:00.322Z,91493.23
2018-03-26T03:21:49.392Z,91493.84
2018-03-26T03:22:38.573Z,91489.87
2018-03-26T03:23:27.608Z,91482.19
2018-03-26T03:24:16.689Z,91483.19
2018-03-26T03:25:05.829Z,91480.98
2018-03-26T03:25:54.913Z,91487.19
2018-03-26T03:26:44.019Z,91483.72
2018-03-26T03:27:33.094Z,91489.27
2018-03-26T03:28:22.192Z,91492.82
2018-03-26T03:29:11.266Z,91487.19
2018-03-26T03:30:00.341Z,91495.29
2018-03-26T03:30:50.313Z,91491.50
2018-03-26T03:31:39.387Z,91488.73
2018-03-26T03:32:28.463Z,91485.09
2018-03-26T03:33:17.543Z,91491.55
2018-03-26T03:34:09.861Z,91491.38
2018-03-26T03:34:58.932Z,91494.39
2018-03-26T03:35:48.037Z,91488.73
2018-03-26T03:36:37.113Z,91488.89
2018-03-26T03:37:26.205Z,91484.23
2018-03-26T03:38:15.273Z,91485.13
2018-03-26T03:39:04.405Z,91482.30
2018-03-26T03:39:53.515Z,91478.13
2018-03-26T03:40:42.582Z,91477.80
2018-03-26T03:41:31.666Z,91479.03
2018-03-26T03:42:20.743Z,91477.52
2018-03-26T03:43:09.856Z,91477.53
2018-03-26T03:43:58.955Z,91478.53
2018-03-26T03:44:48.049Z,91483.65
2018-03-26T03:45:38.073Z,91487.55
2018-03-26T03:46:27.144Z,91484.95
2018-03-26T03:47:16.226Z,91486.02
2018-03-26T03:48:05.334Z,91482.92
2018-03-26T03:48:54.479Z,91486.04
2018-03-26T03:49:43.566Z,91481.96
2018-03-26T03:50:32.670Z,91482.73
2018-03-26T03:51:21.756Z,91481.53
2018-03-26T03:52:10.833Z,91483.30
2018-03-26T03:52:59.960Z,91484.39
2018-03-26T03:53:49.214Z,91484.45
2018-03-26T03:54:38.429Z,91479.57
2018-03-26T03:55:27.539Z,91486.66
2018-03-26T03:56:16.613Z,91485.75
2018-03-26T03:57:05.714Z,91488.82
2018-03-26T03:57:54.903Z,91484.41
2018-03-26T03:58:44.023Z,91490.23
2018-03-26T03:59:36.142Z,91480.78
2018-03-26T04:00:25.209Z,91486.09
2018-03-26T04:01:14.289Z,91483.44
2018-03-26T04:02:03.386Z,91484.76
2018-03-26T04:02:52.478Z,91491.67
2018-03-26T04:03:41.621Z,91486.36
2018-03-26T04:04:30.709Z,91487.69
2018-03-26T04:05:19.806Z,91482.27
2018-03-26T04:06:08.920Z,91486.31
2018-03-26T04:06:58.054Z,91495.33
2018-03-26T04:07:47.154Z,91492.56
2018-03-26T04:08:36.247Z,91492.47
2018-03-26T04:09:25.452Z,91497.64
2018-03-26T04:10:14.531Z,91491.04
2018-03-26T04:11:03.680Z,91493.14
2018-03-26T04:11:52.757Z,91494.91
2018-03-26T04:12:41.830Z,91489.84
2018-03-26T04:13:30.906Z,91489.53
2018-03-26T04:14:20.107Z,91485.48
2018-03-26T04:15:09.209Z,91489.81
2018-03-26T04:15:58.287Z,91476.64
2018-03-26T04:16:47.361Z,91471.78
2018-03-26T04:17:36.625Z,91477.53
2018-03-26T04:18:25.714Z,91472.84
2018-03-26T04:19:14.820Z,91478.05
2018-03-26T04:20:03.969Z,91480.27
2018-03-26T04:20:53.038Z,91478.59
2018-03-26T04:21:42.119Z,91475.94
2018-03-26T04:22:31.235Z,91478.78
2018-03-26T04:23:20.315Z,91481.17
2018-03-26T04:24:09.394Z,91478.80
2018-03-26T04:24:58.481Z,91485.96
2018-03-26T04:25:47.729Z,91489.06
2018-03-26T04:26:36.850Z,91486.20
2018-03-26T04:27:25.974Z,91489.22
2018-03-26T04:28:15.055Z,91485.16
2018-03-26T04:29:04.259Z,91490.89
2018-03-26T04:29:53.441Z,91485.05
2018-03-26T04:30:42.599Z,91492.75
2018-03-26T04:31:31.742Z,91484.24
2018-03-26T04:32:20.906Z,91485.06
2018-03-26T04:33:10.158Z,91484.38
2018-03-26T04:33:59.272Z,91481.02
2018-03-26T04:34:48.413Z,91478.89
2018-03-26T04:35:37.516Z,91479.65
2018-03-26T04:36:26.841Z,91473.56
2018-03-26T04:37:15.998Z,91472.52
2018-03-26T04:38:05.146Z,91473.84
2018-03-26T04:38:54.262Z,91480.13
2018-03-26T04:39:43.431Z,91468.37
2018-03-26T04:40:32.648Z,91465.02
2018-03-26T04:41:21.874Z,91468.61
2018-03-26T04:42:11.023Z,91464.52
2018-03-26T04:43:00.166Z,91465.87
2018-03-26T04:43:49.291Z,91461.69
2018-03-26T04:44:38.422Z,91467.91
2018-03-26T04:45:27.529Z,91466.70
2018-03-26T04:46:16.674Z,91471.13
2018-03-26T04:47:05.777Z,91472.67
2018-03-26T04:47:54.973Z,91466.99
2018-03-26T04:48:44.144Z,91465.61
2018-03-26T04:49:33.221Z,91463.05
2018-03-26T04:50:22.505Z,91462.80
2018-03-26T04:51:11.639Z,91462.27
2018-03-26T04:52:00.715Z,91463.87
2018-03-26T04:52:49.834Z,91468.98
2018-03-26T04:53:39.146Z,91468.11
2018-03-26T04:54:28.241Z,91468.64
2018-03-26T04:55:17.345Z,91470.14
2018-03-26T04:56:06.451Z,91469.46
2018-03-26T04:56:55.819Z,91473.18
2018-03-26T04:57:44.939Z,91474.43
2018-03-26T04:58:34.762Z,91474.53
2018-03-26T04:59:23.864Z,91470.02
2018-03-26T05:00:13.090Z,91467.81
2018-03-26T05:01:02.242Z,91470.64
2018-03-26T05:01:51.356Z,91466.77
2018-03-26T05:02:40.424Z,91464.29
2018-03-26T05:03:31.334Z,91463.73
2018-03-26T05:04:20.474Z,91468.86
2018-03-26T05:05:09.648Z,91466.73
2018-03-26T05:05:58.807Z,91467.44
2018-03-26T05:06:47.952Z,91468.69
2018-03-26T05:07:37.414Z,91467.88
2018-03-26T05:08:26.606Z,91460.19
2018-03-26T05:09:15.721Z,91458.51
2018-03-26T05:10:04.854Z,91463.28
2018-03-26T05:10:53.968Z,91456.73
2018-03-26T05:11:43.148Z,91460.12
2018-03-26T05:12:32.268Z,91463.14
2018-03-26T05:13:21.425Z,91461.66
2018-03-26T05:14:10.590Z,91458.98
2018-03-26T05:14:59.675Z,91467.40
2018-03-26T05:15:48.753Z,91461.46
2018-03-26T05:16:37.865Z,91462.44
2018-03-26T05:17:26.969Z,91461.30
2018-03-26T05:18:16.087Z,91460.41
2018-03-26T05:19:05.195Z,91461.28
2018-03-26T05:19:54.578Z,91461.91
2018-03-26T05:20:43.682Z,91463.16
2018-03-26T05:21:32.799Z,91459.52
2018-03-26T05:22:21.909Z,91460.23
2018-03-26T05:23:11.014Z,91463.68
2018-03-26T05:24:00.211Z,91457.99
2018-03-26T05:24:49.314Z,91457.89
2018-03-26T05:25:38.415Z,91458.56
2018-03-26T05:26:27.531Z,91461.99
2018-03-26T05:27:16.665Z,91454.25
2018-03-26T05:28:05.773Z,91461.83
2018-03-26T05:28:54.884Z,91464.14
2018-03-26T05:29:44.071Z,91464.59
2018-03-26T05:30:33.162Z,91459.75
2018-03-26T05:31:22.284Z,91460.82
2018-03-26T05:32:11.411Z,91456.40
2018-03-26T05:33:00.514Z,91459.08
2018-03-26T05:33:49.640Z,91456.15
2018-03-26T05:34:38.790Z,91454.38
2018-03-26T05:35:27.885Z,91456.84
2018-03-26T05:36:17.030Z,91460.10
2018-03-26T05:37:06.140Z,91459.48
2018-03-26T05:37:55.494Z,91463.82
2018-03-26T05:38:44.586Z,91472.58
2018-03-26T05:39:33.786Z,91467.27
2018-03-26T05:40:23.088Z,91466.77
2018-03-26T05:41:12.323Z,91463.13
2018-03-26T05:42:01.405Z,91464.73
2018-03-26T05:42:50.503Z,91466.16
2018-03-26T05:43:39.617Z,91466.53
2018-03-26T05:44:28.738Z,91466.20
2018-03-26T05:45:17.962Z,91465.94
2018-03-26T05:46:07.092Z,91468.48
2018-03-26T05:47:02.314Z,91468.80
2018-03-26T05:47:51.391Z,91464.11
2018-03-26T05:48:40.480Z,91468.36
2018-03-26T05:49:29.542Z,91470.59
2018-03-26T05:50:18.647Z,91465.53
2018-03-26T05:51:07.723Z,91467.30
2018-03-26T05:51:56.788Z,91467.89
2018-03-26T05:52:45.867Z,91461.77
2018-03-26T05:53:34.937Z,91459.49
2018-03-26T05:54:24.062Z,91454.91
2018-03-26T05:55:13.132Z,91462.53
2018-03-26T05:56:02.242Z,91461.76
2018-03-26T05:56:51.330Z,91462.05
2018-03-26T05:57:40.405Z,91460.39
2018-03-26T05:58:29.480Z,91459.44
2018-03-26T05:59:18.558Z,91449.36
2018-03-26T06:00:07.668Z,91453.00
2018-03-26T06:00:56.748Z,91455.12
2018-03-26T06:01:45.964Z,91458.73
2018-03-26T06:02:35.032Z,91460.07
2018-03-26T06:03:24.125Z,91458.23
2018-03-26T06:04:13.197Z,91455.83
2018-03-26T06:05:02.267Z,91452.20
2018-03-26T06:05:51.347Z,91446.80
2018-03-26T06:06:40.414Z,91452.03
2018-03-26T06:07:29.607Z,91450.35
2018-03-26T06:08:18.686Z,91451.68
2018-03-26T06:09:07.850Z,91446.18
2018-03-26T06:09:56.914Z,91443.88
2018-03-26T06:10:45.992Z,91445.92
2018-03-26T06:11:35.068Z,91444.41
2018-03-26T06:12:24.169Z,91447.69
2018-03-26T06:13:13.241Z,91446.53
2018-03-26T06:14:02.316Z,91442.28
2018-03-26T06:14:51.378Z,91448.06
2018-03-26T06:15:40.444Z,91434.66
2018-03-26T06:16:29.551Z,91444.86
2018-03-26T06:17:18.650Z,91439.98
2018-03-26T06:18:07.916Z,91443.97
2018-03-26T06:18:57.138Z,91442.64
2018-03-26T06:19:46.224Z,91446.45
2018-03-26T06:20:35.326Z,91441.58
2018-03-26T06:21:24.424Z,91440.60
2018-03-26T06:22:13.512Z,91443.97
2018-03-26T06:23:02.617Z,91452.56
2018-03-26T06:23:51.714Z,91445.30
2018-03-26T06:24:40.851Z,91440.87
2018-03-26T06:25:30.028Z,91447.16
2018-03-26T06:26:19.349Z,91443.80
2018-03-26T06:27:08.440Z,91437.86
2018-03-26T06:27:57.533Z,91434.31
2018-03-26T06:28:46.638Z,91442.37
2018-03-26T06:29:35.741Z,91444.07
2018-03-26T06:30:24.899Z,91434.13
2018-03-26T06:31:14.057Z,91446.97
2018-03-26T06:32:03.154Z,91444.33
2018-03-26T06:32:52.238Z,91440.16
2018-03-26T06:33:41.357Z,91441.23
2018-03-26T06:34:30.448Z,91440.64
2018-03-26T06:35:19.543Z,91438.16
2018-03-26T06:36:14.890Z,91432.63
2018-03-26T06:38:45.505Z,91428.14
2018-03-26T06:40:35.506Z,91436.39
2018-03-26T06:41:24.882Z,91441.97
2018-03-26T06:42:13.962Z,91431.80
2018-03-26T06:43:03.041Z,91434.34
2018-03-26T06:43:52.359Z,91438.16
2018-03-26T06:44:41.494Z,91437.20
2018-03-26T06:45:30.555Z,91439.25
2018-03-26T06:46:19.632Z,91439.70
2018-03-26T06:47:08.726Z,91438.48
2018-03-26T06:47:57.818Z,91440.42
2018-03-26T06:48:46.889Z,91436.17
2018-03-26T06:49:35.955Z,91435.38
2018-03-26T06:50:25.090Z,91440.06
2018-03-26T06:51:14.140Z,91434.56
2018-03-26T06:52:03.203Z,91430.67
2018-03-26T06:52:52.361Z,91429.34
2018-03-26T06:53:41.432Z,91434.32
2018-03-26T06:54:30.513Z,91434.41
2018-03-26T06:55:19.573Z,91432.81
2018-03-26T06:56:08.646Z,91429.72
2018-03-26T06:57:00.486Z,91435.02
2018-03-26T06:57:49.570Z,91437.23
2018-03-26T06:58:38.783Z,91440.06
2018-03-26T06:59:27.866Z,91446.44
2018-03-26T07:00:16.941Z,91441.57
2018-03-26T07:01:06.303Z,91436.44
2018-03-26T07:01:55.342Z,91443.09
2018-03-26T13:58:43.640Z,91308.07
2018-03-26T13:59:32.955Z,91313.27
2018-03-26T14:00:22.131Z,91311.83
2018-03-26T14:01:11.290Z,91309.64
2018-03-26T14:02:01.675Z,91317.41
2018-03-26T14:02:50.828Z,91322.57
2018-03-26T14:03:40.035Z,91325.14
2018-03-26T14:04:29.291Z,91326.06
2018-03-26T14:05:18.532Z,91317.40
2018-03-26T14:06:07.735Z,91314.45
2018-03-26T14:06:57.672Z,91311.14
2018-03-26T14:07:46.841Z,91304.22
2018-03-26T14:08:47.903Z,91300.58
2018-03-26T14:09:48.877Z,91299.70
2018-03-26T14:10:49.732Z,91302.56
2018-03-26T14:11:50.620Z,91297.37
2018-03-26T14:12:51.469Z,91295.97
2018-03-26T14:13:52.382Z,91297.11
2018-03-26T14:14:53.499Z,91300.83
2018-03-26T14:15:54.308Z,91304.89
2018-03-26T14:16:55.213Z,91308.32
2018-03-26T14:17:49.816Z,91303.48
2018-03-26T14:18:39.092Z,91300.62
2018-03-26T14:19:28.305Z,91301.40
2018-03-26T14:20:17.479Z,91307.55
2018-03-26T14:21:06.648Z,91308.47
2018-03-26T14:21:56.591Z,91306.13
2018-03-26T14:22:45.748Z,91309.30
2018-03-26T14:23:35.791Z,91314.45
2018-03-26T14:24:24.990Z,91309.67
2018-03-26T14:25:14.153Z,91311.59
2018-03-26T14:26:03.277Z,91311.66
2018-03-26T14:26:52.393Z,91309.32
2018-03-26T14:27:41.513Z,91308.13
2018-03-26T14:28:30.673Z,91310.41
2018-03-26T14:29:19.822Z,91304.06
2018-03-26T14:30:09.839Z,91296.47
2018-03-26T14:30:58.950Z,91302.11
2018-03-26T14:31:48.053Z,91297.34
2018-03-26T14:32:38.155Z,91299.92
2018-03-26T14:33:27.289Z,91300.22
2018-03-26T14:34:17.335Z,91299.59
2018-03-26T14:35:32.723Z,91301.20
2018-03-26T14:36:21.872Z,91300.42
2018-03-26T14:37:11.424Z,91304.36
2018-03-26T14:38:01.213Z,91306.68
2018-03-26T14:38:50.540Z,91311.48
2018-03-26T14:39:39.710Z,91307.03
2018-03-26T14:40:28.886Z,91305.91
2018-03-26T14:41:17.979Z,91307.74
2018-03-26T14:42:07.072Z,91314.92
2018-03-26T14:42:56.219Z,91313.17
2018-03-26T14:43:45.372Z,91310.98
2018-03-26T14:44:34.507Z,91313.03
2018-03-26T14:45:23.621Z,91313.78
2018-03-26T14:46:12.745Z,91307.31
2018-03-26T14:47:01.885Z,91312.55
2018-03-26T14:47:51.000Z,91316.11
2018-03-26T14:48:40.228Z,91319.25
2018-03-26T14:49:29.365Z,91318.64
2018-03-26T14:50:18.490Z,91318.45
2018-03-26T14:51:07.624Z,91318.18
2018-03-26T14:51:56.773Z,91317.42
2018-03-26T14:52:45.952Z,91322.77
2018-03-26T14:53:35.101Z,91319.03
2018-03-26T14:54:24.327Z,91321.89
2018-03-26T14:55:13.483Z,91317.31
2018-03-26T14:56:02.704Z,91321.20
2018-03-26T14:56:51.834Z,91321.59
2018-03-26T14:57:40.960Z,91324.47
2018-03-26T14:58:30.132Z,91317.08
2018-03-26T14:59:19.290Z,91318.48
2018-03-26T15:00:08.606Z,91315.95
2018-03-26T15:00:57.739Z,91313.63
2018-03-26T15:01:46.870Z,91309.89
2018-03-26T15:02:35.992Z,91312.55
2018-03-26T15:03:25.137Z,91314.23
2018-03-26T15:04:14.380Z,91316.91
2018-03-26T15:05:03.686Z,91314.03
2018-03-26T15:05:52.864Z,91313.27
2018-03-26T15:06:42.028Z,91313.17
2018-03-26T15:07:31.175Z,91315.16
2018-03-26T15:08:20.301Z,91318.03
2018-03-26T15:09:09.547Z,91312.88
2018-03-26T15:09:58.678Z,91310.20
2018-03-26T15:10:47.845Z,91309.80
2018-03-26T15:11:36.976Z,91308.12
2018-03-26T15:12:26.104Z,91313.39
2018-03-26T15:13:15.228Z,91311.78
2018-03-26T15:14:04.403Z,91311.63
2018-03-26T15:14:53.612Z,91311.00
2018-03-26T15:15:42.734Z,91306.35
2018-03-26T15:16:31.911Z,91308.41
2018-03-26T15:17:21.024Z,91302.29
2018-03-26T15:18:10.178Z,91304.19
2018-03-26T15:18:59.288Z,91308.05
2018-03-26T15:19:48.399Z,91303.75
2018-03-26T15:20:37.629Z,91308.93
2018-03-26T15:21:26.756Z,91308.52
2018-03-26T15:22:15.876Z,91310.85
2018-03-26T15:23:05.007Z,91309.11
2018-03-26T15:23:54.130Z,91305.09
2018-03-26T15:24:43.245Z,91310.30
2018-03-26T15:25:32.572Z,91314.74
2018-03-26T15:26:21.805Z,91310.16
2018-03-26T15:27:10.995Z,91312.34
2018-03-26T15:28:00.069Z,91314.89
2018-03-26T15:28:49.189Z,91309.67
2018-03-26T15:29:38.309Z,91313.70
2018-03-26T15:30:27.435Z,91310.95
2018-03-26T15:31:16.621Z,91311.17
2018-03-26T15:32:05.803Z,91307.44
2018-03-26T15:32:54.928Z,91311.81
2018-03-26T15:33:44.057Z,91309.20
2018-03-26T15:34:33.215Z,91311.87
2018-03-26T15:35:22.349Z,91314.13
2018-03-26T15:36:11.469Z,91317.44
2018-03-26T15:37:00.654Z,91313.91
2018-03-26T15:37:49.841Z,91309.96
2018-03-26T15:38:39.060Z,91318.13
2018-03-26T15:39:28.254Z,91316.36
2018-03-26T15:40:17.385Z,91317.48
2018-03-26T15:41:06.509Z,91314.55
2018-03-26T15:41:55.632Z,91314.69
2018-03-26T15:42:44.760Z,91316.02
2018-03-26T15:43:33.893Z,91318.34
2018-03-26T15:44:23.015Z,91314.53
2018-03-26T15:45:12.285Z,91320.58
2018-03-26T15:46:01.404Z,91320.08
2018-03-26T15:46:50.542Z,91318.54
2018-03-26T15:47:39.688Z,91322.83
2018-03-26T15:48:28.881Z,91321.34
2018-03-26T15:49:18.062Z,91323.80
2018-03-26T15:50:07.272Z,91317.75
2018-03-26T15:50:56.535Z,91325.28
2018-03-26T15:51:45.676Z,91321.98
2018-03-26T15:52:34.812Z,91325.70
2018-03-26T15:53:23.980Z,91328.46
2018-03-26T15:54:13.098Z,91332.31
2018-03-26T15:55:02.252Z,91333.80
2018-03-26T15:55:51.369Z,91338.14
2018-03-26T15:56:40.493Z,91335.95
2018-03-26T15:57:29.636Z,91339.92
2018-03-26T15:58:18.760Z,91342.50
2018-03-26T15:59:07.960Z,91346.02
2018-03-26T15:59:57.189Z,91344.88
2018-03-26T16:00:46.341Z,91340.41
2018-03-26T16:01:35.486Z,91337.23
2018-03-26T16:02:24.656Z,91337.43
2018-03-26T16:03:19.276Z,91337.02
2018-03-26T16:04:08.512Z,91331.55
2018-03-26T16:04:58.579Z,91333.53
2018-03-26T16:05:47.710Z,91341.22
2018-03-26T16:06:36.857Z,91335.17
2018-03-26T16:07:26.009Z,91337.06
2018-03-26T16:08:15.136Z,91334.11
2018-03-26T16:09:04.377Z,91341.98
2018-03-26T16:09:53.707Z,91337.97
2018-03-26T16:10:42.837Z,91338.94
2018-03-26T16:11:31.975Z,91334.02
2018-03-26T16:12:21.099Z,91336.41
2018-03-26T16:13:10.245Z,91339.44
2018-03-26T16:13:59.390Z,91338.45
2018-03-26T16:14:48.514Z,91343.67
2018-03-26T16:15:37.752Z,91339.56
2018-03-26T16:16:26.891Z,91342.08
2018-03-26T16:17:16.037Z,91342.78
2018-03-26T16:18:05.212Z,91340.96
2018-03-26T16:18:54.556Z,91341.11
2018-03-26T16:19:43.828Z,91340.05
2018-03-26T16:20:33.080Z,91338.52
2018-03-26T16:21:22.214Z,91341.54
2018-03-26T16:22:11.369Z,91338.79
2018-03-26T16:23:00.496Z,91337.06
2018-03-26T16:23:49.625Z,91337.91
2018-03-26T16:24:38.755Z,91335.87
2018-03-26T16:25:27.873Z,91334.76
2018-03-26T16:26:17.067Z,91335.86
2018-03-26T16:27:06.214Z,91334.18
2018-03-26T16:27:55.335Z,91334.48
2018-03-26T16:28:44.461Z,91332.64
2018-03-26T16:29:33.681Z,91332.84
2018-03-26T16:30:22.797Z,91336.38
2018-03-26T16:31:11.914Z,91335.65
2018-03-26T16:32:01.035Z,91336.18
2018-03-26T16:32:50.214Z,91334.31
2018-03-26T16:33:39.340Z,91339.88
2018-03-26T16:34:28.466Z,91343.48
2018-03-26T16:35:17.600Z,91334.55
2018-03-26T16:36:06.733Z,91342.66
2018-03-26T16:36:55.850Z,91346.30
2018-03-26T16:37:45.074Z,91345.73
2018-03-26T16:38:34.200Z,91343.84